In Rescue
 
Open Full Screen Window  High Contrast Mode
June 22, 2024 9:37 PM CDT
Weather Information
Wind Direction
  ---
Wind Speed
  00 kt (0 mph)
Wind Gust
  00 kt (0 mph)
Altimeter
29.83 in
Visibility
10 SM
Temperature
17° C
63° F
Dewpoint
14° C
57° F
Humidity
83%
Sky Condition
Missing
VFR

METAR KORB 230237Z AUTO 00000KT 10SM 17/14 A2983 RMK AO2

FAA Disclaimer: The data displayed is for advisory purposes only and is not to be used for flight planning or operations.
Missing Cloud Data